createdAt,value
2022-12-14T00:01:55.505Z,30.32
2022-12-14T00:04:23.013Z,38.55
2022-12-14T00:06:52.098Z,43.40
2022-12-14T00:09:20.296Z,35.15
2022-12-14T00:11:49.877Z,36.53
2022-12-14T00:14:17.722Z,34.65
2022-12-14T00:16:45.529Z,38.95
2022-12-14T00:19:13.889Z,33.80
2022-12-14T00:21:41.763Z,32.73
2022-12-14T00:24:09.988Z,31.27
2022-12-14T00:26:38.117Z,31.12
2022-12-14T00:29:05.845Z,29.98
2022-12-14T00:31:33.629Z,26.27
2022-12-14T00:34:01.701Z,26.62
2022-12-14T00:36:30.910Z,27.37
2022-12-14T00:38:58.663Z,23.55
2022-12-14T00:41:26.506Z,24.82
2022-12-14T00:43:55.229Z,21.82
2022-12-14T00:46:23.015Z,25.05
2022-12-14T00:48:50.585Z,23.77
2022-12-14T00:51:18.726Z,28.52
2022-12-14T00:53:46.754Z,25.75
2022-12-14T00:56:14.409Z,29.40
2022-12-14T00:58:42.184Z,29.80
2022-12-14T01:01:15.400Z,29.40
2022-12-14T01:03:43.297Z,30.90
2022-12-14T01:06:22.808Z,32.48
2022-12-14T01:08:50.643Z,27.22
2022-12-14T01:11:18.816Z,26.57
2022-12-14T01:13:49.385Z,25.27
2022-12-14T01:16:18.128Z,24.70
2022-12-14T01:18:46.027Z,21.12
2022-12-14T01:21:20.381Z,21.10
2022-12-14T01:23:55.084Z,22.67
2022-12-14T01:26:25.190Z,23.42
2022-12-14T01:28:56.951Z,27.32
2022-12-14T01:31:29.251Z,24.07
2022-12-14T01:33:57.218Z,29.52
2022-12-14T01:36:31.554Z,23.73
2022-12-14T01:39:04.850Z,31.57
2022-12-14T01:41:52.495Z,26.65
2022-12-14T01:44:25.645Z,26.12
2022-12-14T01:47:12.245Z,29.67
2022-12-14T01:49:47.416Z,30.75
2022-12-14T01:52:26.240Z,29.67
2022-12-14T01:55:02.717Z,32.73
2022-12-14T01:57:38.975Z,26.30
2022-12-14T02:00:10.323Z,24.50
2022-12-14T02:02:41.633Z,19.07
2022-12-14T02:05:11.827Z,21.10
2022-12-14T02:07:43.411Z,21.73
2022-12-14T02:10:13.081Z,19.02
2022-12-14T02:12:48.479Z,16.27
2022-12-14T02:15:17.037Z,19.77
2022-12-14T02:17:47.219Z,19.45
2022-12-14T02:20:16.425Z,16.17
2022-12-14T02:23:23.262Z,17.25
2022-12-14T02:26:12.999Z,17.40
2022-12-14T02:29:21.443Z,14.85
2022-12-14T02:32:17.356Z,14.90
2022-12-14T02:37:44.261Z,13.60
2022-12-14T02:41:12.418Z,13.05
2022-12-14T02:44:03.949Z,14.28
2022-12-14T02:47:02.402Z,14.78
2022-12-14T02:50:05.793Z,14.95
2022-12-14T02:52:38.925Z,13.58
2022-12-14T02:55:30.068Z,18.92
2022-12-14T02:58:18.114Z,20.90
2022-12-14T03:00:48.301Z,19.65
2022-12-14T03:03:16.505Z,25.50
2022-12-14T03:05:57.233Z,26.90
2022-12-14T03:08:28.812Z,23.83
2022-12-14T03:11:05.733Z,28.57
2022-12-14T03:13:38.843Z,20.95
2022-12-14T03:16:16.601Z,24.60
2022-12-14T03:19:04.756Z,28.20
2022-12-14T03:21:37.594Z,28.45
2022-12-14T03:24:09.757Z,20.82
2022-12-14T03:26:50.784Z,16.07
2022-12-14T03:29:32.717Z,14.85
2022-12-14T03:32:05.720Z,14.30
2022-12-14T03:34:37.912Z,18.40
2022-12-14T03:37:41.384Z,17.90
2022-12-14T03:40:13.447Z,16.67
2022-12-14T03:43:16.770Z,17.23
2022-12-14T03:46:17.418Z,16.10
2022-12-14T03:48:52.321Z,13.35
2022-12-14T03:51:37.650Z,17.55
2022-12-14T03:54:16.696Z,13.60
2022-12-14T03:56:58.777Z,14.03
2022-12-14T03:59:47.053Z,15.43
2022-12-14T04:02:34.021Z,16.75
2022-12-14T04:05:29.080Z,21.70
2022-12-14T04:11:02.863Z,16.32
2022-12-14T04:13:59.659Z,17.10
2022-12-14T04:16:53.031Z,16.93
2022-12-14T04:19:26.210Z,15.45
2022-12-14T04:22:04.659Z,17.67
2022-12-14T04:25:05.409Z,12.35
2022-12-14T04:27:55.476Z,15.98
2022-12-14T04:30:23.416Z,32.13
2022-12-14T04:33:04.022Z,18.62
2022-12-14T04:35:41.372Z,20.57
2022-12-14T04:38:23.129Z,22.30
2022-12-14T04:40:57.862Z,25.82
2022-12-14T04:43:30.119Z,21.80
2022-12-14T04:46:08.164Z,22.35
2022-12-14T04:49:11.867Z,28.38
2022-12-14T04:52:21.691Z,26.27
2022-12-14T04:55:00.433Z,44.95
2022-12-14T04:57:50.182Z,23.92
2022-12-14T05:00:18.049Z,28.40
2022-12-14T05:03:18.790Z,24.40
2022-12-14T05:06:15.953Z,26.75
2022-12-14T05:09:17.973Z,24.52
2022-12-14T05:12:09.119Z,24.37
2022-12-14T05:14:52.650Z,26.05
2022-12-14T05:17:20.677Z,22.65
2022-12-14T05:19:51.318Z,19.60
2022-12-14T05:22:19.874Z,23.22
2022-12-14T05:24:51.554Z,19.50
2022-12-14T05:27:19.720Z,23.38
2022-12-14T05:29:48.219Z,21.27
2022-12-14T05:32:17.115Z,21.30
2022-12-14T05:34:46.051Z,21.50
2022-12-14T05:37:18.446Z,23.18
2022-12-14T05:39:46.059Z,20.70
2022-12-14T05:42:17.823Z,21.15
2022-12-14T05:44:48.608Z,29.00
2022-12-14T05:47:17.917Z,33.08
2022-12-14T05:49:49.283Z,34.15
2022-12-14T05:52:20.845Z,37.33
2022-12-14T05:54:48.830Z,56.00
2022-12-14T05:57:16.993Z,52.93
2022-12-14T05:59:45.068Z,62.40
2022-12-14T06:02:14.504Z,69.65
2022-12-14T06:04:43.768Z,47.58
2022-12-14T06:07:12.294Z,44.03
2022-12-14T06:09:41.417Z,46.92
2022-12-14T06:12:10.458Z,44.95
2022-12-14T06:14:38.540Z,42.80
2022-12-14T06:17:07.392Z,58.98
2022-12-14T06:19:37.425Z,48.45
2022-12-14T06:22:05.099Z,35.78
2022-12-14T06:24:34.888Z,30.30
2022-12-14T06:27:03.310Z,31.95
2022-12-14T06:29:31.471Z,38.50
2022-12-14T06:32:04.268Z,72.00
2022-12-14T06:34:38.098Z,49.10
2022-12-14T06:37:03.378Z,26.87
2022-12-14T06:39:31.861Z,23.83
2022-12-14T06:41:59.376Z,23.40
2022-12-14T06:44:29.925Z,23.60
2022-12-14T06:46:58.007Z,25.05
2022-12-14T06:49:26.050Z,23.50
2022-12-14T06:51:54.479Z,25.48
2022-12-14T06:54:24.742Z,20.50
2022-12-14T06:56:53.408Z,24.47
2022-12-14T06:59:22.671Z,23.57
2022-12-14T07:01:50.564Z,27.58
2022-12-14T07:04:20.746Z,40.25
2022-12-14T07:06:50.661Z,40.50
2022-12-14T07:09:20.805Z,85.75
2022-12-14T07:11:51.009Z,50.65
2022-12-14T07:14:18.863Z,50.23
2022-12-14T07:16:48.776Z,47.00
2022-12-14T07:19:18.516Z,72.65
2022-12-14T07:21:47.588Z,53.98
2022-12-14T07:24:16.307Z,44.83
2022-12-14T07:26:45.088Z,52.50
2022-12-14T07:29:15.780Z,52.62
2022-12-14T07:31:44.471Z,43.13
2022-12-14T07:34:15.060Z,41.05
2022-12-14T07:36:43.519Z,42.08
2022-12-14T07:39:15.097Z,40.70
2022-12-14T07:41:46.643Z,45.12
2022-12-14T07:44:17.154Z,44.60
2022-12-14T07:46:45.181Z,47.65
2022-12-14T07:49:13.071Z,34.78
2022-12-14T07:51:46.131Z,34.00
2022-12-14T07:54:14.601Z,33.60
2022-12-14T07:56:43.809Z,29.12
2022-12-14T07:59:15.695Z,27.00
2022-12-14T08:01:45.985Z,26.73
2022-12-14T08:04:20.022Z,27.50
2022-12-14T08:06:51.487Z,24.52
2022-12-14T08:09:19.697Z,22.82
2022-12-14T08:11:47.543Z,27.73
2022-12-14T08:14:18.566Z,27.73
2022-12-14T08:16:48.705Z,21.33
2022-12-14T08:19:17.713Z,23.55
2022-12-14T08:21:45.636Z,23.90
2022-12-14T08:24:16.215Z,29.10
2022-12-14T08:26:49.194Z,23.42
2022-12-14T08:29:15.008Z,24.60
2022-12-14T08:31:42.761Z,26.35
2022-12-14T08:34:10.488Z,23.22
2022-12-14T08:36:38.352Z,26.50
2022-12-14T08:39:09.824Z,21.80
2022-12-14T08:41:37.685Z,27.70
2022-12-14T08:44:06.094Z,29.00
2022-12-14T08:46:37.068Z,31.33
2022-12-14T08:49:06.925Z,41.48
2022-12-14T08:51:39.593Z,27.62
2022-12-14T08:54:07.547Z,19.42
2022-12-14T08:56:35.838Z,19.75
2022-12-14T08:59:06.805Z,22.58
2022-12-14T09:01:35.081Z,19.25
2022-12-14T09:04:05.890Z,15.40
2022-12-14T09:06:37.799Z,16.62
2022-12-14T09:09:13.590Z,14.33
2022-12-14T09:11:37.198Z,29.45
2022-12-14T09:14:06.853Z,20.95
2022-12-14T09:16:35.494Z,16.75
2022-12-14T09:19:06.219Z,16.07
2022-12-14T09:21:34.369Z,13.93
2022-12-14T09:24:02.056Z,13.55
2022-12-14T09:26:30.216Z,17.07
2022-12-14T09:28:58.294Z,21.90
2022-12-14T09:31:27.898Z,27.20
2022-12-14T09:33:56.280Z,26.65
2022-12-14T09:36:27.976Z,21.12
2022-12-14T09:38:57.096Z,22.82
2022-12-14T09:41:50.966Z,34.20
2022-12-14T09:44:29.804Z,34.95
2022-12-14T09:47:29.794Z,49.50
2022-12-14T09:50:09.068Z,82.25
2022-12-14T09:52:53.129Z,58.75
2022-12-14T09:55:28.734Z,33.83
2022-12-14T09:58:01.970Z,22.27
2022-12-14T10:00:35.394Z,29.30
2022-12-14T10:03:38.988Z,44.55
2022-12-14T10:06:44.165Z,69.97
2022-12-14T10:09:50.445Z,33.23
2022-12-14T10:12:36.363Z,17.77
2022-12-14T10:15:17.202Z,43.87
2022-12-14T10:18:41.398Z,32.93
2022-12-14T10:21:14.810Z,55.95
2022-12-14T10:23:54.075Z,27.37
2022-12-14T10:26:33.172Z,13.32
2022-12-14T10:29:12.356Z,20.25
2022-12-14T10:32:18.962Z,25.70
2022-12-14T10:34:48.932Z,27.40
2022-12-14T10:37:37.466Z,27.58
2022-12-14T10:40:33.595Z,43.83
2022-12-14T10:43:03.626Z,30.17
2022-12-14T10:46:10.039Z,26.15
2022-12-14T10:48:44.940Z,22.70
2022-12-14T10:51:38.012Z,17.98
2022-12-14T10:54:33.338Z,23.52
2022-12-14T10:57:01.403Z,17.25
2022-12-14T10:59:43.696Z,17.55
2022-12-14T11:02:14.765Z,26.33
2022-12-14T11:05:00.879Z,23.62
2022-12-14T11:07:38.973Z,30.92
2022-12-14T11:10:29.397Z,18.30
2022-12-14T11:13:15.088Z,16.52
2022-12-14T11:18:25.420Z,26.33
2022-12-14T11:21:04.683Z,22.10
2022-12-14T11:23:44.660Z,20.08
2022-12-14T11:26:25.121Z,19.12
2022-12-14T11:28:56.203Z,18.62
2022-12-14T11:31:32.461Z,36.17
2022-12-14T11:34:03.993Z,18.87
2022-12-14T11:36:39.197Z,34.35
2022-12-14T11:39:24.273Z,22.48
2022-12-14T11:42:04.132Z,24.45
2022-12-14T11:44:38.335Z,32.20
2022-12-14T11:47:19.832Z,16.48
2022-12-14T11:49:57.446Z,20.57
2022-12-14T11:52:40.279Z,17.95
2022-12-14T11:55:26.847Z,17.10
2022-12-14T11:57:55.277Z,21.97
2022-12-14T12:00:46.611Z,23.10
2022-12-14T12:03:19.545Z,38.75
2022-12-14T12:05:48.885Z,29.23
2022-12-14T12:08:22.489Z,19.77
2022-12-14T12:10:54.378Z,20.88
2022-12-14T12:13:28.074Z,13.45
2022-12-14T12:16:01.771Z,14.07
2022-12-14T12:18:47.421Z,17.02
2022-12-14T12:21:26.804Z,25.25
2022-12-14T12:24:03.622Z,20.88
2022-12-14T12:27:01.058Z,21.42
2022-12-14T12:29:40.009Z,14.87
2022-12-14T12:32:40.649Z,14.90
2022-12-14T12:35:53.449Z,11.10
2022-12-14T12:38:54.919Z,18.05
2022-12-14T12:41:49.799Z,25.88
2022-12-14T12:44:26.510Z,21.85
2022-12-14T12:49:33.128Z,55.88
2022-12-14T12:52:09.629Z,23.90
2022-12-14T12:54:55.352Z,23.73
2022-12-14T12:57:27.612Z,23.38
2022-12-14T12:59:56.953Z,19.00
2022-12-14T13:02:38.680Z,18.40
2022-12-14T13:05:45.151Z,26.45
2022-12-14T13:07:54.690Z,18.20
2022-12-14T13:10:32.422Z,23.55
2022-12-14T13:13:11.784Z,17.10
2022-12-14T13:15:54.355Z,19.42
2022-12-14T13:18:59.698Z,18.45
2022-12-14T13:21:35.916Z,20.25
2022-12-14T13:24:07.037Z,23.90
2022-12-14T13:27:29.606Z,21.62
2022-12-14T13:30:23.941Z,20.40
2022-12-14T13:33:20.074Z,18.60
2022-12-14T13:36:07.682Z,25.43
2022-12-14T13:38:44.125Z,25.82
2022-12-14T13:41:23.200Z,21.48
2022-12-14T13:44:37.186Z,21.23
2022-12-14T13:47:07.430Z,17.37
2022-12-14T13:49:35.710Z,19.65
2022-12-14T13:52:05.910Z,38.23
2022-12-14T13:54:41.607Z,13.45
2022-12-14T13:57:18.441Z,15.83
2022-12-14T13:59:54.290Z,17.77
2022-12-14T14:02:37.036Z,20.10
2022-12-14T14:05:25.815Z,13.08
2022-12-14T14:08:39.205Z,17.07
2022-12-14T14:11:39.960Z,20.17
2022-12-14T14:14:22.660Z,14.15
2022-12-14T14:16:57.479Z,17.45
2022-12-14T14:19:28.068Z,19.45
2022-12-14T14:22:28.280Z,19.12
2022-12-14T14:25:08.953Z,20.60
2022-12-14T14:27:41.898Z,16.82
2022-12-14T14:30:35.652Z,14.40
2022-12-14T14:33:43.212Z,15.83
2022-12-14T14:35:38.111Z,18.25
2022-12-14T14:38:29.217Z,18.82
2022-12-14T14:41:19.059Z,18.77
2022-12-14T14:43:49.546Z,17.70
2022-12-14T14:46:23.154Z,18.20
2022-12-14T14:48:58.296Z,19.25
2022-12-14T14:51:30.280Z,20.90
2022-12-14T14:55:11.118Z,19.37
2022-12-14T14:56:53.508Z,19.98
2022-12-14T14:59:40.593Z,22.32
2022-12-14T15:02:31.169Z,23.57
2022-12-14T15:05:24.842Z,20.95
2022-12-14T15:07:32.510Z,23.73
2022-12-14T15:10:08.571Z,24.32
2022-12-14T15:12:53.512Z,28.25
2022-12-14T15:15:37.472Z,29.18
2022-12-14T15:18:24.129Z,56.13
2022-12-14T15:21:11.631Z,47.15
2022-12-14T15:23:52.605Z,38.85
2022-12-14T15:26:28.526Z,42.27
2022-12-14T15:29:00.029Z,38.25
2022-12-14T15:31:37.816Z,35.88
2022-12-14T15:34:06.349Z,42.33
2022-12-14T15:36:39.618Z,48.68
2022-12-14T15:39:27.893Z,35.15
2022-12-14T15:42:12.880Z,37.38
2022-12-14T15:44:51.074Z,37.50
2022-12-14T15:47:27.120Z,42.05
2022-12-14T15:50:15.781Z,34.20
2022-12-14T15:52:45.792Z,33.48
2022-12-14T15:55:36.922Z,27.70
2022-12-14T15:58:17.777Z,28.47
2022-12-14T16:00:51.066Z,34.65
2022-12-14T16:05:54.877Z,36.45
2022-12-14T16:08:24.526Z,34.85
2022-12-14T16:10:56.220Z,29.48
2022-12-14T16:13:32.708Z,30.82
2022-12-14T16:16:11.138Z,39.60
2022-12-14T16:18:51.240Z,38.00
2022-12-14T16:21:35.382Z,29.80
2022-12-14T16:24:25.686Z,34.03
2022-12-14T16:27:01.974Z,29.92
2022-12-14T16:29:34.110Z,35.45
2022-12-14T16:32:14.875Z,32.15
2022-12-14T16:34:58.550Z,23.65
2022-12-14T16:37:32.613Z,25.97
2022-12-14T16:39:56.143Z,30.50
2022-12-14T16:42:26.864Z,28.05
2022-12-14T16:44:55.029Z,30.75
2022-12-14T16:47:37.184Z,20.72
2022-12-14T16:50:55.020Z,24.32
2022-12-14T16:53:25.275Z,21.12
2022-12-14T16:56:15.306Z,26.73
2022-12-14T16:58:54.744Z,20.75
2022-12-14T17:01:26.080Z,19.02
2022-12-14T17:04:02.103Z,21.10
2022-12-14T17:06:39.427Z,26.42
2022-12-14T17:09:20.166Z,38.92
2022-12-14T17:12:01.829Z,30.85
2022-12-14T17:14:32.211Z,29.75
2022-12-14T17:17:07.142Z,23.52
2022-12-14T17:19:39.302Z,22.30
2022-12-14T17:22:21.748Z,32.13
2022-12-14T17:24:51.768Z,22.98
2022-12-14T17:27:24.496Z,25.75
2022-12-14T17:29:58.442Z,23.67
2022-12-14T17:32:30.453Z,28.92
2022-12-14T17:35:08.059Z,24.87
2022-12-14T17:37:38.978Z,29.02
2022-12-14T17:40:11.653Z,33.42
2022-12-14T17:42:40.944Z,30.65
2022-12-14T17:45:16.995Z,42.10
2022-12-14T17:47:45.618Z,48.13
2022-12-14T17:50:15.136Z,43.05
2022-12-14T17:52:43.651Z,35.78
2022-12-14T17:55:24.542Z,39.38
2022-12-14T17:57:52.887Z,34.25
2022-12-14T18:00:43.808Z,32.53
2022-12-14T18:03:15.371Z,36.13
2022-12-14T18:05:49.178Z,31.02
2022-12-14T18:08:19.800Z,36.53
2022-12-14T18:11:00.659Z,28.15
2022-12-14T18:13:31.188Z,30.65
2022-12-14T18:16:02.348Z,27.37
2022-12-14T18:18:30.750Z,26.10
2022-12-14T18:21:02.604Z,31.10
2022-12-14T18:23:36.256Z,37.65
2022-12-14T18:26:04.832Z,33.45
2022-12-14T18:28:36.323Z,33.38
2022-12-14T18:31:08.437Z,34.67
2022-12-14T18:33:40.817Z,36.68
2022-12-14T18:36:12.299Z,54.65
2022-12-14T18:38:41.132Z,40.88
2022-12-14T18:41:11.317Z,35.03
2022-12-14T18:43:43.645Z,41.08
2022-12-14T18:46:09.401Z,44.98
2022-12-14T18:48:38.124Z,47.08
2022-12-14T18:51:06.977Z,64.80
2022-12-14T18:53:35.169Z,42.00
2022-12-14T18:56:07.265Z,39.20
2022-12-14T18:58:35.133Z,46.30
2022-12-14T19:01:02.763Z,59.73
2022-12-14T19:03:32.542Z,39.20
2022-12-14T19:08:42.620Z,55.05
2022-12-14T19:11:14.668Z,46.02
2022-12-14T19:13:46.239Z,38.98
2022-12-14T19:16:17.616Z,37.60
2022-12-14T19:18:45.102Z,43.92
2022-12-14T19:21:12.794Z,53.42
2022-12-14T19:23:40.317Z,35.68
2022-12-14T19:26:07.706Z,35.60
2022-12-14T19:28:35.497Z,31.40
2022-12-14T19:31:03.581Z,34.45
2022-12-14T19:33:31.749Z,33.85
2022-12-14T19:35:59.723Z,35.90
2022-12-14T19:38:28.022Z,35.92
2022-12-14T19:41:04.488Z,37.03
2022-12-14T19:43:32.854Z,40.58
2022-12-14T19:46:07.764Z,34.60
2022-12-14T19:48:35.766Z,37.08
2022-12-14T19:51:10.966Z,31.35
2022-12-14T19:56:12.881Z,30.40
2022-12-14T19:58:40.755Z,27.82
2022-12-14T20:01:12.285Z,26.85
2022-12-14T20:03:41.097Z,27.25
2022-12-14T20:06:11.025Z,26.97
2022-12-14T20:08:38.812Z,31.42
2022-12-14T20:11:10.730Z,29.07
2022-12-14T20:13:40.493Z,28.35
2022-12-14T20:16:12.461Z,25.68
2022-12-14T20:18:40.423Z,26.97
2022-12-14T20:21:10.336Z,28.38
2022-12-14T20:23:39.217Z,25.80
2022-12-14T20:26:15.158Z,28.20
2022-12-14T20:28:45.342Z,21.17
2022-12-14T20:31:16.683Z,30.60
2022-12-14T20:33:45.225Z,24.40
2022-12-14T20:36:13.256Z,26.55
2022-12-14T20:38:41.017Z,28.17
2022-12-14T20:41:13.764Z,29.32
2022-12-14T20:43:43.642Z,26.40
2022-12-14T20:46:31.895Z,31.57
2022-12-14T20:49:03.588Z,31.73
2022-12-14T20:51:38.018Z,32.85
2022-12-14T20:54:10.962Z,29.12
2022-12-14T20:56:40.028Z,36.33
2022-12-14T20:59:10.588Z,38.42
2022-12-14T21:01:50.119Z,32.83
2022-12-14T21:04:16.979Z,31.93
2022-12-14T21:06:50.667Z,31.50
2022-12-14T21:09:19.252Z,30.05
2022-12-14T21:12:09.747Z,35.03
2022-12-14T21:14:46.132Z,29.42
2022-12-14T21:17:18.149Z,32.13
2022-12-14T21:19:47.102Z,36.80
2022-12-14T21:22:25.102Z,36.90
2022-12-14T21:25:03.033Z,31.48
2022-12-14T21:27:27.024Z,29.80
2022-12-14T21:29:55.550Z,29.37
2022-12-14T21:32:23.988Z,34.65
2022-12-14T21:34:52.173Z,31.30
2022-12-14T21:37:21.466Z,34.10
2022-12-14T21:39:55.079Z,36.33
2022-12-14T21:42:23.179Z,41.25
2022-12-14T21:44:53.563Z,39.30
2022-12-14T21:47:25.811Z,37.15
2022-12-14T21:50:05.143Z,26.82
2022-12-14T21:52:33.549Z,22.60
2022-12-14T21:55:03.257Z,25.20
2022-12-14T21:57:50.843Z,28.95
2022-12-14T22:00:19.802Z,21.87
2022-12-14T22:02:47.933Z,18.65
2022-12-14T22:05:17.010Z,18.30
2022-12-14T22:07:46.876Z,12.20
2022-12-14T22:10:17.657Z,17.02
2022-12-14T22:12:45.026Z,16.35
2022-12-14T22:15:12.902Z,17.45
2022-12-14T22:17:40.730Z,15.30
2022-12-14T22:20:10.487Z,19.57
2022-12-14T22:22:41.614Z,16.60
2022-12-14T22:25:12.374Z,14.10
2022-12-14T22:27:40.510Z,16.77
2022-12-14T22:30:11.676Z,17.60
2022-12-14T22:32:41.666Z,17.05
2022-12-14T22:35:10.318Z,14.80
2022-12-14T22:37:38.394Z,14.45
2022-12-14T22:40:08.579Z,15.68
2022-12-14T22:42:36.432Z,15.93
2022-12-14T22:45:05.829Z,17.20
2022-12-14T22:47:34.300Z,14.93
2022-12-14T22:50:02.607Z,18.07
2022-12-14T22:52:35.878Z,26.65
2022-12-14T22:55:05.112Z,17.60
2022-12-14T22:57:47.599Z,16.97
2022-12-14T23:00:16.483Z,17.32
2022-12-14T23:02:48.085Z,16.87
2022-12-14T23:05:17.576Z,15.75
2022-12-14T23:07:45.303Z,16.00
2022-12-14T23:10:31.409Z,15.25
2022-12-14T23:13:17.391Z,14.00
2022-12-14T23:16:04.759Z,15.13
2022-12-14T23:18:50.788Z,18.62
2022-12-14T23:21:37.219Z,15.25
2022-12-14T23:24:25.256Z,18.80
2022-12-14T23:27:14.263Z,21.33
2022-12-14T23:30:00.134Z,22.22
2022-12-14T23:32:46.312Z,21.30
2022-12-14T23:35:32.586Z,16.32
2022-12-14T23:38:26.719Z,12.18
2022-12-14T23:41:20.765Z,13.10
2022-12-14T23:44:08.341Z,16.10
2022-12-14T23:46:54.629Z,12.75
2022-12-14T23:49:41.422Z,14.85
2022-12-14T23:52:27.568Z,15.83
2022-12-14T23:57:59.668Z,13.55
